Time;durP1;ratioP1;P1;durP2;ratioP2;P2;SDS_P1;SDS_P2;PMS_P1;PMS_P2;Temp;Humidity;BMP_temperature;BMP_pressure;BME280_temperature;BME280_humidity;BME280_pressure;Samples;Min_cycle;Max_cycle;Signal;HPM_P1;HPM_P2
2022/01/11 00:00:54;;;;;;;18.08;13.10;;;3.40;81.50;;;1.20;93.43;96999.97;4900930;29;20342;-64
2022/01/11 00:03:20;;;;;;;23.38;13.32;;;3.30;81.50;;;1.18;93.07;96993.25;4948754;28;20055;-64
2022/01/11 00:08:15;;;;;;;21.85;13.95;;;3.40;81.50;;;1.21;93.86;97011.19;4933400;29;20537;-65
2022/01/11 00:10:53;;;;;;;21.65;13.82;;;3.40;81.60;;;1.20;93.34;97012.94;4932743;28;20055;-64
2022/01/11 00:13:19;;;;;;;20.70;13.00;;;3.40;81.60;;;1.21;93.28;97009.41;4914187;29;20119;-64
2022/01/11 00:15:46;;;;;;;26.98;14.38;;;3.30;81.50;;;1.23;94.04;97017.06;4913574;29;20076;-64
2022/01/11 00:18:12;;;;;;;24.55;13.88;;;3.40;81.40;;;1.23;93.27;97015.31;4905999;29;20039;-64
2022/01/11 00:20:38;;;;;;;24.25;13.88;;;3.40;81.50;;;1.26;92.92;97021.22;4885730;28;20043;-65
2022/01/11 00:25:45;;;;;;;21.67;13.45;;;3.40;81.50;;;1.27;93.36;97017.69;4932460;28;20032;-65
2022/01/11 00:28:13;;;;;;;23.55;14.10;;;3.50;81.40;;;1.28;93.13;97024.53;4913902;29;20063;-64
2022/01/11 00:30:41;;;;;;;24.35;14.07;;;3.50;81.40;;;1.27;93.80;97033.22;4924752;29;20099;-64
2022/01/11 00:33:11;;;;;;;23.65;14.18;;;3.40;81.30;;;1.26;92.91;97032.41;4927589;29;20029;-63
2022/01/11 00:35:45;;;;;;;26.55;14.82;;;3.40;81.50;;;1.27;93.39;97028.88;4927679;29;20027;-64
2022/01/11 00:49:38;;;;;;;24.20;14.40;;;3.40;81.70;;;1.26;94.43;97036.75;4947084;28;20290;-67
2022/01/11 00:55:47;;;;;;;30.27;14.77;;;3.40;81.70;;;1.26;93.92;97031.56;4927158;28;20059;-67
2022/01/11 00:58:13;;;;;;;26.15;14.73;;;3.40;81.70;;;1.27;93.62;97033.22;4914406;29;20519;-67
2022/01/11 01:00:39;;;;;;;28.10;15.18;;;3.40;81.80;;;1.27;93.49;97041.84;4929665;29;20127;-67
2022/01/11 01:03:05;;;;;;;26.67;15.48;;;3.40;81.60;;;1.26;93.49;97031.56;4946493;29;20651;-67
2022/01/11 01:05:31;;;;;;;22.75;15.05;;;3.40;81.90;;;1.26;93.91;97044.53;4927084;29;20043;-67
2022/01/11 01:07:57;;;;;;;27.35;14.88;;;3.40;81.60;;;1.25;93.98;97050.66;4915507;29;20499;-67
2022/01/11 01:10:26;;;;;;;23.63;15.38;;;3.40;81.60;;;1.25;93.50;97046.28;4931544;29;20040;-67
2022/01/11 01:12:56;;;;;;;26.13;15.80;;;3.40;81.70;;;1.28;94.13;97055.63;4917424;29;20032;-67
2022/01/11 01:15:22;;;;;;;24.10;15.30;;;3.40;81.70;;;1.27;93.98;97052.19;4915201;29;20047;-67
2022/01/11 01:17:47;;;;;;;27.70;15.90;;;3.40;81.80;;;1.27;93.56;97053.97;4913825;29;20122;-67
2022/01/11 01:20:13;;;;;;;27.85;15.82;;;3.40;81.60;;;1.29;93.97;97052.09;4946042;28;20040;-67
2022/01/11 01:22:39;;;;;;;28.73;15.60;;;3.40;81.60;;;1.29;93.65;97057.28;4930500;28;20032;-67
2022/01/11 01:25:06;;;;;;;24.65;15.73;;;3.40;81.60;;;1.29;93.97;97062.47;4938667;29;20037;-67
2022/01/11 01:27:32;;;;;;;25.95;15.52;;;3.40;81.60;;;1.30;93.96;97056.34;4899405;29;20044;-67
2022/01/11 01:29:57;;;;;;;26.73;16.15;;;3.50;81.70;;;1.31;93.97;97058.00;4912339;29;20485;-67
2022/01/11 01:32:24;;;;;;;26.75;16.02;;;3.50;81.70;;;1.34;94.18;97066.38;4940284;29;20058;-68
2022/01/11 01:34:51;;;;;;;26.60;16.17;;;3.50;81.70;;;1.32;93.80;97062.22;4944170;28;20043;-67
2022/01/11 01:37:17;;;;;;;26.83;16.08;;;3.50;81.60;;;1.32;93.89;97062.22;4926620;29;20039;-67
2022/01/11 01:39:42;;;;;;;25.38;15.27;;;3.50;81.60;;;1.33;94.07;97058.72;4912737;29;20043;-67
2022/01/11 01:42:11;;;;;;;28.05;16.90;;;3.60;81.60;;;1.33;94.15;97058.72;4926605;29;20483;-67
2022/01/11 01:44:38;;;;;;;25.75;15.82;;;3.50;81.40;;;1.35;93.99;97067.19;4944535;28;20091;-68
2022/01/11 01:47:04;;;;;;;28.48;16.30;;;3.50;81.50;;;1.33;93.87;97063.88;4930482;29;20455;-67
2022/01/11 01:49:32;;;;;;;25.58;15.20;;;3.50;81.40;;;1.36;93.89;97074.03;4929109;28;20047;-67
2022/01/11 01:51:58;;;;;;;24.55;15.82;;;3.60;81.50;;;1.36;94.32;97069.72;4945938;28;20121;-67
2022/01/11 01:54:25;;;;;;;26.52;15.18;;;3.60;81.60;;;1.38;94.16;97070.44;4912869;29;20069;-67
2022/01/11 01:56:50;;;;;;;27.55;15.60;;;3.60;81.50;;;1.38;94.46;97072.19;4930428;28;20535;-66
2022/01/11 01:59:16;;;;;;;29.88;16.63;;;3.60;81.40;;;1.38;94.24;97061.81;4929361;29;20048;-66
2022/01/11 02:01:46;;;;;;;28.85;16.58;;;3.60;81.50;;;1.40;94.32;97067.72;4897041;29;20039;-67
2022/01/11 02:04:13;;;;;;;26.75;16.60;;;3.60;81.50;;;1.39;93.60;97063.47;4944023;29;20043;-66
2022/01/11 02:06:38;;;;;;;28.90;16.25;;;3.60;81.40;;;1.38;93.81;97067.00;4915691;28;20419;-66
2022/01/11 02:09:04;;;;;;;30.00;16.67;;;3.60;81.40;;;1.40;93.96;97072.91;4939860;28;20031;-67
2022/01/11 02:11:30;;;;;;;28.08;17.33;;;3.60;81.50;;;1.39;94.10;97073.84;4904307;29;20055;-66
2022/01/11 02:13:56;;;;;;;26.48;15.57;;;3.60;81.40;;;1.41;94.63;97082.34;4896146;29;20032;-66
2022/01/11 02:16:22;;;;;;;27.02;16.02;;;3.60;81.30;;;1.40;93.97;97075.50;4912040;29;20055;-67
2022/01/11 02:18:49;;;;;;;29.33;15.90;;;3.60;81.20;;;1.40;93.43;97080.69;4930713;28;20078;-67
2022/01/11 02:21:15;;;;;;;23.70;15.25;;;3.60;81.20;;;1.41;94.38;97084.94;4926644;29;20047;-67
2022/01/11 02:23:41;;;;;;;26.73;15.55;;;3.60;81.20;;;1.41;94.15;97077.16;4930873;29;20122;-67
2022/01/11 02:26:06;;;;;;;27.05;15.55;;;3.60;81.20;;;1.40;94.07;97076.34;4925093;29;20031;-67
2022/01/11 02:28:32;;;;;;;26.08;15.48;;;3.60;81.30;;;1.40;93.57;97083.28;4921284;29;20384;-67
2022/01/11 02:31:00;;;;;;;24.58;14.95;;;3.60;81.10;;;1.40;93.96;97085.88;4912056;29;20056;-67
2022/01/11 02:33:42;;;;;;;28.90;15.43;;;3.60;81.20;;;1.39;94.30;97077.28;4925550;29;20127;-67
2022/01/11 02:36:20;;;;;;;27.88;15.25;;;3.60;81.20;;;1.40;93.99;97080.69;4932184;28;20072;-67
2022/01/11 02:38:50;;;;;;;24.08;15.25;;;3.60;81.20;;;1.40;94.19;97075.50;4917233;29;20032;-67
2022/01/11 02:41:16;;;;;;;26.00;15.57;;;3.60;81.20;;;1.41;94.04;97077.16;4920337;29;20071;-67
2022/01/11 02:43:43;;;;;;;27.70;15.93;;;3.60;81.20;;;1.41;94.13;97077.16;4927443;29;20036;-68
2022/01/11 02:46:09;;;;;;;27.33;15.00;;;3.60;81.20;;;1.40;94.08;97078.09;4928622;28;20063;-67
2022/01/11 02:48:34;;;;;;;25.20;14.65;;;3.60;81.20;;;1.40;94.19;97075.50;4909691;28;20210;-68
2022/01/11 02:51:00;;;;;;;24.52;14.65;;;3.60;81.20;;;1.41;93.72;97079.75;4910068;29;20138;-67
2022/01/11 02:53:26;;;;;;;26.63;15.27;;;3.60;81.20;;;1.40;94.18;97084.09;4912563;29;20551;-68
2022/01/11 02:55:52;;;;;;;24.98;14.38;;;3.60;81.20;;;1.39;94.16;97079.84;4941728;28;20047;-67
2022/01/11 02:58:17;;;;;;;26.92;15.65;;;3.60;81.10;;;1.40;93.94;97081.50;4929480;29;20409;-67
2022/01/11 03:00:43;;;;;;;26.50;14.82;;;3.60;81.00;;;1.40;93.94;97081.50;4910217;29;20083;-68
2022/01/11 03:03:14;;;;;;;25.42;13.93;;;3.60;81.10;;;1.40;94.21;97083.28;4894933;29;20443;-67
2022/01/11 03:05:52;;;;;;;24.40;13.85;;;3.60;81.00;;;1.40;94.28;97091.88;4894720;29;20033;-67
2022/01/11 03:08:18;;;;;;;23.27;14.35;;;3.60;81.10;;;1.39;93.67;97081.63;4919359;29;20024;-66
2022/01/11 03:10:45;;;;;;;22.48;13.82;;;3.60;81.00;;;1.40;93.71;97083.28;4913433;29;20123;-67
2022/01/11 03:13:11;;;;;;;26.30;15.63;;;3.60;80.80;;;1.38;93.39;97092.94;4911984;29;20038;-67
2022/01/11 03:15:38;;;;;;;22.88;14.95;;;3.60;81.00;;;1.38;93.58;97083.38;4930505;29;20059;-68
2022/01/11 03:18:05;;;;;;;24.80;13.93;;;3.50;80.80;;;1.38;93.43;97088.56;4920419;29;20044;-67
2022/01/11 03:20:32;;;;;;;25.48;13.98;;;3.50;80.90;;;1.38;93.31;97087.75;4930865;29;20588;-66
2022/01/11 03:22:57;;;;;;;24.73;14.48;;;3.50;80.90;;;1.37;93.83;97089.50;4911208;29;20392;-66
2022/01/11 03:25:24;;;;;;;24.10;14.63;;;3.50;81.00;;;1.37;93.59;97093.88;4943302;29;20043;-67
2022/01/11 03:27:51;;;;;;;26.17;14.57;;;3.50;80.80;;;1.36;93.10;97094.78;4910744;29;20044;-67
2022/01/11 03:30:16;;;;;;;21.60;14.43;;;3.40;81.00;;;1.33;92.85;97089.81;4917070;29;20066;-67
2022/01/11 03:32:42;;;;;;;26.25;14.38;;;3.40;81.10;;;1.35;93.68;97099.13;4932660;29;20504;-66
2022/01/11 03:35:10;;;;;;;26.17;15.50;;;3.40;81.20;;;1.36;93.63;97105.13;4884201;29;20508;-67
2022/01/11 03:37:36;;;;;;;24.65;14.63;;;3.50;81.20;;;1.36;93.40;97099.97;4913932;29;20485;-66
2022/01/11 03:40:03;;;;;;;25.60;14.70;;;3.50;81.20;;;1.35;93.57;97099.13;4919716;29;20032;-67
2022/01/11 03:42:29;;;;;;;23.13;14.75;;;3.50;81.10;;;1.37;92.92;97109.44;4914165;29;20040;-66
2022/01/11 03:44:55;;;;;;;26.08;14.18;;;3.50;81.00;;;1.35;93.87;97108.69;4920745;29;20532;-68
2022/01/11 03:47:21;;;;;;;24.42;14.90;;;3.60;80.90;;;1.34;93.77;97107.00;4913047;29;20044;-70
2022/01/11 03:49:47;;;;;;;25.50;15.05;;;3.50;80.90;;;1.33;93.86;97106.19;4920122;29;20027;-66
2022/01/11 03:52:12;;;;;;;25.45;14.75;;;3.60;81.00;;;1.33;93.36;97111.38;4913409;29;20694;-66
2022/01/11 03:55:03;;;;;;;27.77;15.63;;;3.50;81.00;;;1.33;93.56;97110.53;4897360;29;20092;-66
2022/01/11 03:57:29;;;;;;;24.02;14.93;;;3.50;81.10;;;1.33;93.94;97113.97;4903706;29;20079;-66
2022/01/11 03:59:56;;;;;;;27.00;15.27;;;3.50;81.00;;;1.33;93.42;97110.53;4916812;29;20039;-66
2022/01/11 04:02:22;;;;;;;25.58;14.68;;;3.50;81.20;;;1.33;93.65;97107.97;4916415;29;20051;-65
2022/01/11 04:04:52;;;;;;;23.55;15.07;;;3.50;81.10;;;1.32;93.88;97120.09;4931815;28;20040;-65
2022/01/11 04:07:23;;;;;;;25.63;15.27;;;3.50;81.10;;;1.32;94.09;97109.72;4901888;29;20429;-66
2022/01/11 04:09:49;;;;;;;;;;;3.50;81.00;;;1.32;94.21;97114.06;4914492;29;20476;-66
2022/01/11 04:12:15;;;;;;;27.45;16.02;;;3.50;81.10;;;1.30;93.58;97113.34;4945182;28;19941;-66
2022/01/11 04:14:41;;;;;;;30.02;16.20;;;3.50;81.10;;;1.30;93.66;97113.34;4915109;28;20036;-67
2022/01/11 04:17:07;;;;;;;25.58;15.18;;;3.50;81.10;;;1.30;93.92;97110.75;4931785;29;20558;-66
2022/01/11 04:19:33;;;;;;;24.60;15.57;;;3.50;81.00;;;1.32;93.40;97111.47;4900341;29;20048;-67
2022/01/11 04:21:59;;;;;;;25.48;14.85;;;3.50;80.90;;;1.31;93.91;97107.22;4932524;29;20042;-66
2022/01/11 04:24:24;;;;;;;28.58;15.52;;;3.50;81.20;;;1.30;93.82;97110.75;4948137;29;20780;-66
2022/01/11 04:26:50;;;;;;;26.15;14.75;;;3.50;81.10;;;1.31;93.70;97107.22;4932162;29;20070;-66
2022/01/11 04:29:16;;;;;;;25.95;14.88;;;3.50;81.20;;;1.31;93.49;97109.81;4917029;29;20039;-67
2022/01/11 04:31:42;;;;;;;22.95;14.35;;;3.50;81.20;;;1.31;93.23;97112.41;4916182;29;20115;-66
2022/01/11 04:34:08;;;;;;;28.77;15.32;;;3.50;81.10;;;1.31;93.17;97120.19;4916058;29;20055;-66
2022/01/11 04:36:34;;;;;;;27.00;15.82;;;3.50;81.00;;;1.30;93.89;97121.13;4915837;29;20051;-66
2022/01/11 04:39:00;;;;;;;24.42;14.43;;;3.50;81.10;;;1.31;94.18;97117.59;4896403;29;20040;-66
2022/01/11 04:41:27;;;;;;;24.88;15.13;;;3.50;81.10;;;1.31;93.34;97127.97;4929403;29;20124;-66
2022/01/11 04:43:53;;;;;;;23.23;14.65;;;3.50;81.20;;;1.29;93.55;97119.47;4926472;29;20055;-67
2022/01/11 04:46:19;;;;;;;28.17;14.95;;;3.40;81.10;;;1.28;93.94;97125.59;4931962;29;20119;-68
2022/01/11 04:48:48;;;;;;;34.38;20.67;;;3.50;81.20;;;1.29;94.14;97135.03;4912599;29;20416;-67
2022/01/11 04:51:14;;;;;;;51.80;29.67;;;3.50;81.20;;;1.30;94.17;97136.69;4913037;29;20587;-68
2022/01/11 04:53:39;;;;;;;36.00;21.45;;;3.50;81.40;;;1.31;94.19;97130.56;4930615;29;20040;-69
2022/01/11 04:56:05;;;;;;;31.05;18.08;;;3.50;81.30;;;1.31;94.09;97127.97;4930739;29;20042;-67
2022/01/11 04:58:31;;;;;;;28.67;15.50;;;3.50;81.20;;;1.31;94.07;97139.16;4948592;29;20054;-66
2022/01/11 05:00:57;;;;;;;24.65;14.82;;;3.50;80.90;;;1.29;93.68;97135.84;4931934;28;20036;-67
2022/01/11 05:03:22;;;;;;;23.95;14.98;;;3.50;80.90;;;1.29;93.58;97135.03;4931807;29;20587;-66
2022/01/11 05:05:48;;;;;;;23.42;14.82;;;3.40;80.90;;;1.28;93.30;97141.16;4897420;29;20338;-66
2022/01/11 05:08:14;;;;;;;39.85;24.45;;;3.50;80.90;;;1.27;94.15;97142.09;4945866;29;20047;-66
2022/01/11 05:10:42;;;;;;;109.90;65.32;;;3.40;81.10;;;1.23;93.21;97139.72;4931882;29;20031;-67
2022/01/11 05:13:12;;;;;;;48.33;29.77;;;3.40;80.90;;;1.22;93.87;97148.41;4917019;29;20111;-67
2022/01/11 05:15:38;;;;;;;31.92;18.65;;;3.40;80.90;;;1.21;93.27;97153.72;4918681;29;20504;-66
2022/01/11 05:18:04;;;;;;;29.58;16.35;;;3.40;80.80;;;1.19;93.94;97153.81;4900048;29;20062;-65
2022/01/11 05:20:30;;;;;;;26.95;15.35;;;3.40;80.90;;;1.20;93.79;97152.06;4932480;29;20507;-66
2022/01/11 05:22:55;;;;;;;26.23;15.43;;;3.40;80.90;;;1.19;94.04;97150.41;4947678;29;20086;-67
2022/01/11 05:25:21;;;;;;;24.58;14.57;;;3.40;81.00;;;1.17;93.37;97152.25;4931884;29;20102;-66
2022/01/11 05:27:47;;;;;;;25.10;15.38;;;3.40;81.00;;;1.17;93.96;97155.69;4937441;29;20036;-66
2022/01/11 05:30:13;;;;;;;26.65;15.55;;;3.40;81.10;;;1.15;93.82;97149.78;4931851;29;20059;-66
2022/01/11 05:32:39;;;;;;;28.38;14.75;;;3.40;81.10;;;1.15;93.35;97154.13;4899866;28;20060;-66
2022/01/11 05:35:06;;;;;;;26.92;15.00;;;3.40;81.00;;;1.15;94.28;97154.97;4915945;29;20123;-66
2022/01/11 05:37:32;;;;;;;26.38;15.13;;;3.40;81.00;;;1.14;93.82;97150.72;4916473;29;20127;-67
2022/01/11 05:39:58;;;;;;;27.83;15.00;;;3.40;81.00;;;1.16;93.66;97153.19;4915828;29;20126;-66
2022/01/11 05:42:27;;;;;;;28.17;15.82;;;3.40;81.10;;;1.16;94.04;97160.97;4900404;29;20050;-66
2022/01/11 05:44:53;;;;;;;32.53;20.42;;;3.30;81.10;;;1.15;93.40;97160.16;4915415;29;20059;-66
2022/01/11 05:47:19;;;;;;;29.48;16.02;;;3.30;81.20;;;1.14;93.58;97166.25;4915840;29;20099;-66
2022/01/11 05:49:44;;;;;;;36.47;21.65;;;3.30;81.20;;;1.14;93.66;97168.84;4915737;29;20431;-67
2022/01/11 05:52:10;;;;;;;29.55;16.48;;;3.30;81.60;;;1.15;93.54;97173.09;4916544;29;20048;-66
2022/01/11 05:54:36;;;;;;;25.35;15.48;;;3.30;81.30;;;1.14;94.28;97174.03;4915476;28;20059;-66
2022/01/11 05:57:03;;;;;;;32.85;17.48;;;3.40;81.10;;;1.13;94.22;97177.56;4931251;29;20032;-66
2022/01/11 05:59:28;;;;;;;31.50;19.02;;;3.30;81.30;;;1.14;94.09;97184.41;4931401;29;20144;-66
2022/01/11 06:01:55;;;;;;;30.90;18.40;;;3.40;81.60;;;1.12;94.27;97181.06;4915799;29;20036;-66
2022/01/11 06:04:20;;;;;;;36.78;20.70;;;3.30;81.80;;;1.11;94.16;97183.75;4915538;29;20035;-67
2022/01/11 06:06:46;;;;;;;29.30;17.40;;;3.30;81.90;;;1.09;94.64;97178.69;4899444;29;20384;-66
2022/01/11 06:09:12;;;;;;;33.15;19.10;;;3.30;81.90;;;1.08;94.37;97189.97;4915344;29;20511;-66
2022/01/11 06:11:37;;;;;;;40.38;24.83;;;3.20;81.70;;;1.07;93.97;97190.91;4896015;29;20051;-66
2022/01/11 06:14:03;;;;;;;31.27;16.88;;;3.20;81.50;;;1.06;93.72;97196.19;4928248;29;20032;-66
2022/01/11 06:16:29;;;;;;;28.83;15.23;;;3.10;81.10;;;1.01;93.37;97187.91;4928138;29;20612;-66
2022/01/11 06:18:55;;;;;;;24.23;14.70;;;3.10;81.00;;;0.98;93.45;97194.13;4896252;29;20358;-66
2022/01/11 06:21:21;;;;;;;25.85;14.32;;;3.10;80.70;;;0.93;93.31;97188.44;4915256;29;20050;-66
2022/01/11 06:23:47;;;;;;;28.50;15.52;;;3.10;80.50;;;0.90;93.12;97191.22;4915608;29;20039;-66
2022/01/11 06:26:16;;;;;;;26.45;14.27;;;3.00;80.30;;;0.86;92.82;97189.75;4915110;29;20040;-67
2022/01/11 06:28:42;;;;;;;24.45;14.27;;;3.00;80.30;;;0.81;92.51;97194.41;4912000;29;20066;-66
2022/01/11 06:31:08;;;;;;;24.02;14.80;;;2.90;80.30;;;0.76;92.64;97199.09;4899428;29;20036;-66
2022/01/11 06:33:34;;;;;;;26.65;14.55;;;2.90;80.40;;;0.71;92.08;97203.75;4931368;29;20520;-66
2022/01/11 06:35:59;;;;;;;25.38;13.45;;;2.80;80.30;;;0.67;92.11;97207.44;4930828;29;20036;-66
2022/01/11 06:38:25;;;;;;;23.60;13.73;;;2.80;80.40;;;0.63;92.38;97213.75;4931224;29;20035;-66
2022/01/11 06:40:51;;;;;;;26.35;14.63;;;2.70;80.50;;;0.58;92.72;97211.47;4912948;29;20055;-67
2022/01/11 06:43:17;;;;;;;140.32;79.88;;;2.70;80.90;;;0.56;92.85;97223.69;4947144;29;20140;-66
2022/01/11 06:45:43;;;;;;;86.07;47.63;;;2.70;81.20;;;0.54;92.73;97221.19;4931019;29;20411;-68
2022/01/11 06:48:10;;;;;;;112.07;67.25;;;2.60;81.20;;;0.50;93.08;97224.94;4923646;29;20063;-66
2022/01/11 06:50:35;;;;;;;87.63;55.05;;;2.60;81.30;;;0.46;92.77;97228.66;4911791;29;20618;-66
2022/01/11 06:53:01;;;;;;;34.88;20.15;;;2.50;81.10;;;0.40;92.81;97234.19;4927754;29;20040;-66
2022/01/11 06:55:28;;;;;;;30.85;15.60;;;2.50;81.00;;;0.35;92.75;97241.44;4911788;29;20377;-66
2022/01/11 06:57:53;;;;;;;26.63;15.48;;;2.40;81.10;;;0.30;92.62;97252.09;4928863;29;20036;-67
2022/01/11 07:00:19;;;;;;;25.13;14.63;;;2.30;81.30;;;0.27;93.40;97252.28;4946824;29;20381;-67
2022/01/11 07:02:49;;;;;;;25.50;14.30;;;2.30;81.50;;;0.25;93.42;97251.53;4947590;28;20039;-67
2022/01/11 07:05:18;;;;;;;23.90;13.90;;;2.40;81.50;;;0.25;93.37;97256.72;4934184;29;20496;-67
2022/01/11 07:07:44;;;;;;;26.98;14.05;;;2.40;81.50;;;0.26;93.42;97260.13;4934614;29;20451;-67
2022/01/11 07:10:10;;;;;;;25.27;15.43;;;2.40;81.80;;;0.27;93.19;97264.38;4934159;29;20083;-66
2022/01/11 07:12:35;;;;;;;24.17;13.45;;;2.40;81.80;;;0.29;93.69;97263.34;4918393;29;20040;-66
2022/01/11 07:15:02;;;;;;;24.52;14.15;;;2.50;82.00;;;0.32;93.70;97264.91;4918476;29;20032;-67
2022/01/11 07:17:27;;;;;;;26.67;15.10;;;2.50;82.20;;;0.35;93.98;97266.47;4918837;29;20041;-67
2022/01/11 07:19:53;;;;;;;26.30;15.00;;;2.60;82.40;;;0.39;94.45;97267.94;4934657;29;20047;-65
2022/01/11 07:22:19;;;;;;;24.67;14.68;;;2.60;82.50;;;0.42;94.25;97275.50;4934310;29;20503;-66
2022/01/11 07:24:44;;;;;;;26.98;15.15;;;2.70;82.40;;;0.47;94.79;97271.72;4914685;29;20036;-66
2022/01/11 07:27:10;;;;;;;24.35;14.23;;;2.70;82.40;;;0.51;94.94;97273.19;4930883;29;20074;-67
2022/01/11 07:29:36;;;;;;;27.85;14.43;;;2.80;82.50;;;0.56;94.51;97260.75;4899441;29;20039;-66
2022/01/11 07:32:02;;;;;;;23.00;14.27;;;2.90;82.40;;;0.58;94.71;97284.78;4930766;29;20412;-66
2022/01/11 07:34:28;;;;;;;28.58;14.65;;;2.90;81.70;;;0.60;94.66;97276.94;4930975;29;20043;-66
2022/01/11 07:36:54;;;;;;;26.67;15.07;;;2.90;81.40;;;0.60;93.90;97277.75;4914833;29;20059;-66
2022/01/11 07:39:19;;;;;;;28.50;15.38;;;2.90;81.30;;;0.63;94.03;97275.91;4916247;29;20046;-67
2022/01/11 07:41:45;;;;;;;26.63;14.75;;;2.90;81.20;;;0.64;94.26;97277.56;4903289;29;20042;-66
2022/01/11 07:44:11;;;;;;;24.70;15.55;;;2.90;81.20;;;0.63;94.37;97276.72;4949645;28;20079;-66
2022/01/11 07:46:39;;;;;;;31.58;14.88;;;2.90;81.20;;;0.64;94.23;97282.72;4933636;28;20040;-66
2022/01/11 07:49:06;;;;;;;28.15;15.98;;;2.90;81.20;;;0.67;94.22;97290.31;4933737;28;20035;-66
2022/01/11 07:51:31;;;;;;;29.88;16.17;;;2.90;81.20;;;0.67;93.94;97285.13;4933535;29;20079;-66
2022/01/11 07:53:57;;;;;;;27.48;16.83;;;3.00;81.30;;;0.68;93.73;97289.38;4949983;29;20059;-66
2022/01/11 07:56:23;;;;;;;29.58;17.10;;;2.90;81.30;;;0.71;94.15;97296.97;4938084;28;20040;-66
2022/01/11 07:58:48;;;;;;;29.90;17.10;;;3.00;81.30;;;0.73;94.37;97292.50;4940487;29;20134;-66
2022/01/11 08:01:15;;;;;;;30.48;18.00;;;3.10;81.20;;;0.76;94.19;97292.31;4949408;29;20043;-66
2022/01/11 08:03:41;;;;;;;27.67;16.60;;;3.10;81.20;;;0.79;94.30;97297.28;4933702;29;20036;-66
2022/01/11 08:06:06;;;;;;;30.60;17.67;;;3.10;81.20;;;0.81;94.67;97296.25;4929844;29;20055;-67
2022/01/11 08:08:32;;;;;;;33.38;18.48;;;3.10;81.20;;;0.84;94.42;97293.47;4914905;29;20039;-66
2022/01/11 08:10:59;;;;;;;29.63;16.70;;;3.20;81.10;;;0.87;94.18;97295.03;4929466;29;20040;-66
2022/01/11 08:13:26;;;;;;;28.55;17.40;;;3.10;81.10;;;0.90;94.22;97297.41;4898678;29;20036;-66
2022/01/11 08:15:51;;;;;;;28.42;16.75;;;3.20;81.10;;;0.94;94.46;97295.47;4930057;29;20456;-67
2022/01/11 08:18:17;;;;;;;29.48;16.95;;;3.20;81.10;;;0.97;94.52;97296.09;4930223;29;20123;-67
2022/01/11 08:20:44;;;;;;;29.30;17.30;;;3.30;80.90;;;1.00;94.15;97295.91;4901422;29;20044;-67
2022/01/11 08:23:11;;;;;;;28.30;16.42;;;3.40;80.60;;;1.04;94.93;97302.53;4933426;29;20038;-67
2022/01/11 08:25:37;;;;;;;24.48;15.70;;;3.40;80.60;;;1.08;94.05;97308.34;4917357;29;20091;-67
2022/01/11 08:28:03;;;;;;;27.17;15.68;;;3.40;80.40;;;1.12;94.18;97305.44;4933027;29;20035;-67
2022/01/11 08:30:30;;;;;;;27.77;16.35;;;3.50;80.40;;;1.16;94.38;97308.69;4933388;29;20032;-67
2022/01/11 08:32:55;;;;;;;26.42;15.70;;;3.60;80.20;;;1.22;94.17;97301.31;4916821;29;20032;-67
2022/01/11 08:35:21;;;;;;;27.90;15.73;;;3.60;80.10;;;1.28;94.15;97320.00;4916839;29;20153;-67
2022/01/11 08:37:47;;;;;;;28.63;16.25;;;3.70;79.90;;;1.32;94.45;97305.88;4914254;29;20032;-67
2022/01/11 08:40:13;;;;;;;25.17;15.75;;;3.70;79.70;;;1.38;94.55;97314.09;4898259;29;20516;-67
2022/01/11 08:42:39;;;;;;;26.20;15.07;;;3.80;79.50;;;1.43;93.71;97319.81;4913648;29;20127;-68
2022/01/11 08:45:06;;;;;;;25.60;15.45;;;3.90;79.20;;;1.49;93.48;97318.56;4929419;29;20038;-69
2022/01/11 08:47:32;;;;;;;24.38;14.50;;;3.90;79.20;;;1.54;93.37;97321.66;4929987;29;20126;-67
2022/01/11 08:49:59;;;;;;;25.23;14.93;;;3.90;79.10;;;1.57;93.25;97331.81;4929655;29;20504;-67
2022/01/11 08:52:26;;;;;;;27.55;15.43;;;4.00;78.90;;;1.61;93.16;97328.13;4929417;29;20040;-67
2022/01/11 08:54:52;;;;;;;28.83;16.50;;;4.10;78.90;;;1.66;93.31;97333.00;4929268;29;20567;-67
2022/01/11 08:57:19;;;;;;;26.55;15.73;;;4.10;78.70;;;1.72;93.03;97330.81;4913658;29;20032;-67
2022/01/11 08:59:45;;;;;;;22.75;15.35;;;4.20;78.50;;;1.77;92.79;97339.09;4932653;29;20094;-68
2022/01/11 09:02:11;;;;;;;23.40;14.45;;;4.30;78.30;;;1.86;92.94;97342.03;4929303;29;20396;-68
2022/01/11 09:04:37;;;;;;;21.30;14.45;;;4.40;77.80;;;1.93;92.92;97343.25;4928760;29;20032;-68
2022/01/11 09:07:03;;;;;;;26.67;15.45;;;4.60;77.30;;;2.01;92.64;97340.94;4913237;29;20091;-67
2022/01/11 09:09:31;;;;;;;24.30;15.30;;;4.60;76.80;;;2.08;92.24;97348.22;4913683;29;20036;-68
2022/01/11 09:11:57;;;;;;;26.75;15.13;;;4.80;76.50;;;2.17;91.87;97341.56;4928689;29;20066;-67
2022/01/11 09:14:23;;;;;;;25.35;15.90;;;4.80;76.20;;;2.26;91.84;97345.28;4928883;29;20179;-67
2022/01/11 09:16:49;;;;;;;25.67;15.50;;;4.90;75.90;;;2.34;91.69;97349.00;4912948;29;20111;-67
2022/01/11 09:19:15;;;;;;;24.80;16.05;;;5.10;75.40;;;2.43;91.61;97355.31;4916423;29;20035;-68
2022/01/11 09:21:41;;;;;;;25.20;15.77;;;5.20;74.90;;;2.53;91.37;97358.13;4932322;29;20036;-67
2022/01/11 09:24:09;;;;;;;27.30;16.05;;;5.30;74.80;;;2.62;90.85;97355.69;4916076;29;20114;-68
2022/01/11 09:26:34;;;;;;;23.23;15.13;;;5.40;74.20;;;2.72;90.56;97354.09;4930836;29;20040;-68
2022/01/11 09:29:00;;;;;;;22.13;15.18;;;5.50;74.10;;;2.80;90.59;97353.53;4932250;29;20042;-67
2022/01/11 09:31:26;;;;;;;21.15;14.73;;;5.60;73.80;;;2.86;89.72;97360.06;4932078;29;20062;-67
2022/01/11 09:33:51;;;;;;;23.17;15.55;;;5.50;73.80;;;2.92;89.78;97364.81;4946521;29;20527;-67
2022/01/11 09:36:17;;;;;;;21.58;14.63;;;5.60;73.50;;;2.97;89.52;97370.53;4931558;29;20047;-68
2022/01/11 09:38:43;;;;;;;20.65;15.05;;;5.60;73.50;;;3.03;89.28;97368.31;4931646;29;20503;-67
2022/01/11 09:41:09;;;;;;;20.80;14.38;;;5.70;73.40;;;3.10;89.33;97357.47;4931755;29;20031;-68
2022/01/11 09:43:34;;;;;;;22.83;15.18;;;5.80;73.50;;;3.15;88.87;97355.34;4932029;29;20106;-67
2022/01/11 09:46:00;;;;;;;19.83;13.95;;;5.90;73.20;;;3.23;88.89;97358.22;4931649;29;20052;-67
2022/01/11 09:48:28;;;;;;;21.15;14.27;;;6.10;73.10;;;3.31;88.35;97353.28;4929217;29;20142;-67
2022/01/11 09:50:54;;;;;;;21.15;15.07;;;6.10;72.40;;;3.41;88.46;97356.88;4900088;29;20051;-67
2022/01/11 09:53:20;;;;;;;21.50;14.65;;;6.20;72.40;;;3.50;87.75;97351.00;4916037;29;20062;-67
2022/01/11 09:55:46;;;;;;;19.40;14.23;;;6.40;71.20;;;3.59;87.52;97350.28;4931277;29;20448;-67
2022/01/11 09:58:12;;;;;;;17.60;13.18;;;6.50;70.90;;;3.67;87.60;97347.13;4932956;29;20483;-67
2022/01/11 10:00:39;;;;;;;16.52;12.98;;;6.70;69.60;;;3.81;86.52;97343.47;4931210;29;20031;-67
2022/01/11 10:03:05;;;;;;;17.70;13.07;;;6.90;67.80;;;3.90;86.21;97348.00;4928201;29;20100;-67
2022/01/11 10:05:31;;;;;;;16.73;13.23;;;7.20;67.40;;;4.05;85.23;97340.75;4928467;29;20048;-67
2022/01/11 10:07:56;;;;;;;19.45;15.65;;;7.40;66.50;;;4.18;85.48;97337.09;4913961;29;20119;-67
2022/01/11 10:10:24;;;;;;;17.20;13.15;;;7.60;65.70;;;4.33;83.58;97335.09;4912866;29;20051;-67
2022/01/11 10:12:55;;;;;;;15.60;11.43;;;7.70;64.40;;;4.49;82.67;97330.31;4928073;29;20072;-68
2022/01/11 10:15:28;;;;;;;17.50;13.52;;;9.10;61.90;;;4.84;82.16;97345.78;4912500;29;20075;-67
2022/01/11 10:17:53;;;;;;;13.30;10.85;;;10.20;57.10;;;5.24;82.55;97329.53;4928297;29;20493;-66
2022/01/11 10:20:22;;;;;;;13.40;10.75;;;12.80;50.00;;;5.68;81.36;97331.06;4928381;29;20036;-67
2022/01/11 10:23:00;;;;;;;13.88;10.02;;;12.90;47.50;;;6.09;80.53;97330.19;4911167;29;20121;-68
2022/01/11 10:25:27;;;;;;;10.70;9.18;;;14.00;44.00;;;6.64;80.02;97325.44;4929732;29;20131;-68
2022/01/11 10:28:06;;;;;;;9.85;8.77;;;16.30;40.00;;;7.24;74.07;97323.59;4911800;29;20112;-67
2022/01/11 10:30:33;;;;;;;10.20;8.82;;;16.60;37.90;;;7.69;78.03;97309.88;4926047;29;20028;-68
2022/01/11 10:33:01;;;;;;;8.98;7.97;;;16.10;38.30;;;8.03;75.55;97310.19;4926845;29;20037;-67
2022/01/11 10:35:44;;;;;;;9.57;7.50;;;16.10;38.80;;;8.45;69.62;97302.75;4911281;29;20074;-68
2022/01/11 10:38:12;;;;;;;9.73;8.00;;;18.10;35.00;;;8.95;72.68;97306.72;4913990;29;20408;-67